Terminal Aerodrome Forecast
Issued by NWS Mt. Holly, NJ

Home | Current Version | Previous Version | Text Only | Print | Product List | Glossary On
Versions: 1 2 3 4 5 6 7 8 9 10 11 12 13 14 15
664
FTUS41 KPHI 041729
TAFABE
TAF
KABE 041729Z 0418/0518 32006KT P6SM SCT040 BKN120
     FM042300 VRB02KT P6SM BKN040 OVC120
     FM050600 13004KT 3SM -SN BKN015 OVC025
      TEMPO 0509/0511 3SM -RASN
     FM051100 VRB03KT 5SM -RA BKN008 OVC015
     FM051600 28008KT P6SM SCT030 OVC050=

USA.gov is the U.S. government's official web portal to all federal, state and local government web resources and services.